Time;durP1;ratioP1;P1;durP2;ratioP2;P2;SDS_P1;SDS_P2;PMS_P1;PMS_P2;Temp;Humidity;BMP_temperature;BMP_pressure;BME280_temperature;BME280_humidity;BME280_pressure;Samples;Min_cycle;Max_cycle;Signal;HPM_P1;HPM_P2
2023/09/10 00:02:14;;;;;;;4.05;1.75;;;;;;;17.12;40.05;94268.19;5014026;28;20422;-75
2023/09/10 00:04:40;;;;;;;4.97;1.85;;;;;;;17.10;39.67;94263.19;5012852;28;20033;-76
2023/09/10 00:07:05;;;;;;;4.80;1.85;;;;;;;17.09;39.37;94274.25;4997647;28;20061;-75
2023/09/10 00:09:31;;;;;;;4.50;2.17;;;;;;;16.98;39.99;94275.88;5013317;28;20045;-75
2023/09/10 00:11:56;;;;;;;3.75;2.40;;;;;;;16.97;39.91;94258.97;4991942;28;20080;-75
2023/09/10 00:14:21;;;;;;;5.82;2.40;;;;;;;16.96;39.99;94270.84;5014948;28;20095;-76
2023/09/10 00:16:47;;;;;;;6.15;2.70;;;;;;;16.81;40.34;94271.56;5016428;28;20057;-75
2023/09/10 00:19:12;;;;;;;4.05;2.22;;;;;;;16.69;40.41;94272.38;5015540;28;20021;-75
2023/09/10 00:21:38;;;;;;;7.97;2.40;;;;;;;16.68;40.65;94272.72;4999494;28;20021;-75
2023/09/10 00:24:04;;;;;;;5.32;2.25;;;;;;;16.70;40.68;94275.84;5017800;28;20068;-76
2023/09/10 00:26:30;;;;;;;4.22;2.40;;;;;;;16.72;40.66;94270.94;5015763;28;20508;-76
2023/09/10 00:28:55;;;;;;;4.88;2.22;;;;;;;16.66;40.54;94259.63;5018218;28;20571;-75
2023/09/10 00:31:21;;;;;;;5.18;2.33;;;;;;;16.77;40.26;94266.09;5013848;28;20046;-75
2023/09/10 00:33:46;;;;;;;4.25;2.33;;;;;;;16.75;40.02;94256.81;5018245;28;20132;-75
2023/09/10 00:36:12;;;;;;;3.58;2.13;;;;;;;16.68;39.23;94249.31;5015899;28;20505;-76
2023/09/10 00:38:37;;;;;;;4.10;1.80;;;;;;;16.75;38.98;94256.81;5017772;28;20033;-75
2023/09/10 00:41:06;;;;;;;5.47;2.17;;;;;;;16.77;39.47;94259.16;4998045;28;21057;-75
2023/09/10 00:43:32;;;;;;;3.67;2.03;;;;;;;16.78;39.91;94261.50;5018019;28;20061;-76
2023/09/10 00:45:57;;;;;;;5.03;2.08;;;;;;;16.78;40.02;94261.50;5017158;28;20164;-76
2023/09/10 00:48:25;;;;;;;4.10;1.70;;;;;;;16.74;40.22;94263.31;4998139;28;20036;-76
2023/09/10 00:50:50;;;;;;;2.65;1.73;;;;;;;16.70;40.17;94257.06;5018088;28;20519;-75
2023/09/10 00:53:18;;;;;;;5.43;2.00;;;;;;;16.50;40.33;94234.63;5015008;28;20037;-75
2023/09/10 00:55:45;;;;;;;2.72;1.90;;;;;;;16.54;40.53;94250.81;4999643;28;20123;-75
2023/09/10 00:58:12;;;;;;;3.20;2.00;;;;;;;16.53;40.59;94270.72;5017872;28;20053;-76
2023/09/10 01:00:37;;;;;;;2.60;2.00;;;;;;;16.43;40.50;94255.13;4998926;28;20036;-76
2023/09/10 01:03:05;;;;;;;4.50;2.40;;;;;;;16.49;40.82;94269.84;5012570;28;20584;-75
2023/09/10 01:05:32;;;;;;;4.35;1.90;;;;;;;16.38;40.67;94258.03;5016818;28;20033;-75
2023/09/10 01:07:57;;;;;;;3.25;2.47;;;;;;;16.29;40.79;94258.09;5017462;28;20175;-76
2023/09/10 01:10:29;;;;;;;7.80;2.40;;;;;;;16.33;40.78;94260.94;5015638;28;20513;-76
2023/09/10 01:13:00;;;;;;;2.88;2.13;;;;;;;16.29;40.68;94255.44;5000556;28;20595;-75
2023/09/10 01:15:36;;;;;;;5.18;2.33;;;;;;;16.26;41.19;94262.25;4997971;28;20029;-76
2023/09/10 01:18:30;;;;;;;3.08;1.50;;;;;;;16.30;40.64;94260.50;4999177;28;20325;-77
2023/09/10 01:21:14;;;;;;;4.63;1.90;;;;;;;16.24;40.87;94248.38;5018477;28;20041;-75
2023/09/10 01:23:58;;;;;;;4.00;2.25;;;;;;;16.15;41.13;94255.78;5016714;28;20041;-75
2023/09/10 01:26:23;;;;;;;3.50;2.00;;;;;;;16.18;40.67;94241.69;5015581;28;20042;-75
2023/09/10 01:28:49;;;;;;;3.70;1.73;;;;;;;15.97;40.72;94218.81;5001420;28;20040;-76
2023/09/10 01:31:14;;;;;;;7.55;1.77;;;;;;;16.13;40.97;94231.22;4995469;28;20048;-76
2023/09/10 01:33:50;;;;;;;3.00;2.10;;;;;;;16.18;40.69;94252.41;5017702;28;22126;-76
2023/09/10 01:36:49;;;;;;;4.78;2.50;;;;;;;16.22;40.89;94252.53;5015293;28;20238;-75
2023/09/10 01:39:26;;;;;;;8.15;3.78;;;;;;;16.13;40.94;94258.03;5001304;28;20124;-76
2023/09/10 01:41:52;;;;;;;6.68;3.47;;;;;;;15.97;41.28;94248.31;4993387;28;20480;-76
2023/09/10 01:44:18;;;;;;;11.20;7.47;;;;;;;16.16;41.07;94262.72;5014441;28;20032;-75
2023/09/10 01:46:45;;;;;;;7.60;5.20;;;;;;;16.11;41.41;94254.91;5010880;28;20053;-75
2023/09/10 01:49:10;;;;;;;4.65;2.28;;;;;;;16.08;41.29;94244.84;5017294;28;20017;-75
2023/09/10 01:51:36;;;;;;;4.72;2.30;;;;;;;16.06;40.71;94241.72;5016487;28;20021;-75
2023/09/10 01:54:02;;;;;;;4.88;2.88;;;;;;;16.10;41.17;94261.38;5017387;28;20596;-75
2023/09/10 01:56:27;;;;;;;5.72;3.00;;;;;;;15.99;41.24;94257.56;5016357;28;20146;-76
2023/09/10 01:58:52;;;;;;;8.20;2.78;;;;;;;15.96;41.60;94257.47;5016130;28;20037;-76
2023/09/10 02:01:18;;;;;;;10.57;3.53;;;;;;;15.82;41.57;94247.06;5014949;28;20037;-76
2023/09/10 02:03:43;;;;;;;4.65;3.22;;;;;;;15.84;41.74;94261.72;5017906;28;20678;-75
2023/09/10 02:06:08;;;;;;;4.22;2.60;;;;;;;15.67;42.19;94266.50;5014499;28;20573;-75
2023/09/10 02:08:34;;;;;;;6.43;3.70;;;;;;;15.61;42.45;94265.16;5017123;28;20048;-75
2023/09/10 02:11:05;;;;;;;8.40;2.88;;;;;;;15.74;42.31;94280.16;5013366;28;20033;-75
2023/09/10 02:13:31;;;;;;;8.55;2.67;;;;;;;15.70;42.46;94287.28;5013645;28;20049;-75
2023/09/10 02:15:57;;;;;;;5.60;2.42;;;;;;;15.77;42.57;94287.53;4998591;28;21004;-76
2023/09/10 02:18:22;;;;;;;6.22;2.72;;;;;;;15.76;42.07;94280.59;5015353;28;20619;-76
2023/09/10 02:20:48;;;;;;;4.53;2.40;;;;;;;15.77;42.21;94292.88;5018145;28;20425;-76
2023/09/10 02:23:13;;;;;;;5.68;2.70;;;;;;;15.72;42.22;94274.34;5015376;28;20090;-76
2023/09/10 02:25:39;;;;;;;3.97;2.38;;;;;;;15.78;42.02;94283.72;5017649;28;20071;-76
2023/09/10 02:28:04;;;;;;;3.65;2.03;;;;;;;15.80;42.34;94286.84;5012659;28;20024;-73
2023/09/10 02:30:30;;;;;;;4.50;2.97;;;;;;;15.87;41.77;94276.38;5016255;28;20509;-75
2023/09/10 02:32:55;;;;;;;4.05;2.35;;;;;;;15.71;41.65;94262.03;5013382;28;20112;-75
2023/09/10 02:35:21;;;;;;;2.75;2.05;;;;;;;15.79;41.96;94282.63;5016364;28;20066;-76
2023/09/10 02:37:46;;;;;;;3.80;2.33;;;;;;;15.70;41.92;94273.88;5015280;28;20037;-77
2023/09/10 02:40:12;;;;;;;3.60;2.03;;;;;;;15.74;41.90;94275.56;5017713;28;20040;-76
2023/09/10 02:42:38;;;;;;;7.32;1.73;;;;;;;15.70;41.94;94273.88;4997024;28;20017;-76
2023/09/10 02:45:04;;;;;;;4.82;2.13;;;;;;;15.60;42.30;94266.25;5017159;28;20037;-76
2023/09/10 02:47:29;;;;;;;3.47;2.17;;;;;;;15.56;42.70;94278.78;5013274;28;20037;-75
2023/09/10 02:49:55;;;;;;;3.92;2.65;;;;;;;15.35;42.85;94250.09;5000065;28;20044;-76
2023/09/10 02:52:24;;;;;;;5.70;2.00;;;;;;;15.40;43.14;94274.03;4996793;28;20234;-75
2023/09/10 02:54:50;;;;;;;3.70;2.22;;;;;;;15.46;43.18;94275.41;4996954;28;20041;-76
2023/09/10 02:57:16;;;;;;;5.57;2.45;;;;;;;15.46;43.09;94272.72;4993910;28;20041;-76
2023/09/10 02:59:41;;;;;;;5.93;2.63;;;;;;;15.48;42.82;94269.72;4997510;28;20030;-77
2023/09/10 03:02:06;;;;;;;5.32;2.30;;;;;;;15.25;42.70;94239.84;4998836;28;20022;-76
2023/09/10 03:04:32;;;;;;;4.00;2.08;;;;;;;15.28;42.74;94260.59;5015182;28;20040;-76
2023/09/10 03:06:57;;;;;;;7.30;2.97;;;;;;;15.32;42.78;94266.88;5016059;28;20034;-76
2023/09/10 03:09:23;;;;;;;5.57;2.92;;;;;;;15.24;43.24;94256.25;5013599;28;20033;-76
2023/09/10 03:11:48;;;;;;;7.78;3.13;;;;;;;15.32;43.38;94271.44;5016086;28;20719;-76
2023/09/10 03:14:15;;;;;;;4.85;2.50;;;;;;;15.31;43.53;94277.91;5013102;28;20048;-76
2023/09/10 03:16:42;;;;;;;4.65;2.35;;;;;;;15.30;43.40;94276.38;5016713;28;20152;-77
2023/09/10 03:19:07;;;;;;;7.15;3.40;;;;;;;15.26;43.14;94270.06;5013521;28;20124;-76
2023/09/10 03:21:35;;;;;;;4.47;2.53;;;;;;;15.21;43.69;94270.28;4998078;28;20078;-77
2023/09/10 03:24:01;;;;;;;5.03;2.28;;;;;;;15.15;43.75;94271.63;5014333;28;20841;-77
2023/09/10 03:26:26;;;;;;;6.13;3.38;;;;;;;15.12;44.39;94288.34;5014123;28;20049;-76
2023/09/10 03:28:51;;;;;;;6.75;3.88;;;;;;;15.02;44.22;94276.94;5014795;28;20087;-76
2023/09/10 03:31:17;;;;;;;4.90;3.05;;;;;;;15.11;44.06;94282.19;5013016;28;20045;-76
2023/09/10 03:33:43;;;;;;;4.07;2.45;;;;;;;15.07;44.12;94286.66;4997620;28;20418;-76
2023/09/10 03:36:09;;;;;;;6.35;1.85;;;;;;;15.07;44.02;94291.22;4995744;28;20037;-75
2023/09/10 03:38:35;;;;;;;6.22;2.25;;;;;;;14.83;44.04;94254.41;5015616;28;20033;-76
2023/09/10 03:41:00;;;;;;;3.53;2.10;;;;;;;14.92;44.50;94282.69;5015713;28;20864;-77
2023/09/10 03:43:25;;;;;;;17.27;2.85;;;;;;;14.86;44.75;94285.91;5014168;28;20029;-76
2023/09/10 03:45:51;;;;;;;4.60;2.80;;;;;;;14.87;44.83;94288.25;5013719;28;20021;-75
2023/09/10 03:48:16;;;;;;;4.72;2.38;;;;;;;14.94;44.62;94298.44;5016069;28;20120;-76
2023/09/10 03:50:42;;;;;;;2.60;2.20;;;;;;;14.92;44.30;94287.25;5012577;28;20497;-77
2023/09/10 03:53:07;;;;;;;3.33;2.30;;;;;;;14.90;44.70;94298.31;5015876;28;20048;-76
2023/09/10 03:55:33;;;;;;;5.47;2.72;;;;;;;14.85;44.68;94305.75;4996186;28;20045;-76
2023/09/10 03:57:58;;;;;;;4.75;2.97;;;;;;;14.78;45.06;94300.13;4998122;28;20367;-76
2023/09/10 04:00:24;;;;;;;6.90;2.50;;;;;;;14.80;44.49;94297.94;5014855;28;20132;-76
2023/09/10 04:02:49;;;;;;;3.92;2.22;;;;;;;14.95;44.39;94310.72;4996269;28;20552;-76
2023/09/10 04:05:15;;;;;;;5.95;2.58;;;;;;;14.85;44.33;94290.47;5013257;28;20120;-76
2023/09/10 04:07:41;;;;;;;3.72;2.35;;;;;;;14.96;44.17;94296.22;4990284;28;21110;-76
2023/09/10 04:10:08;;;;;;;5.20;2.13;;;;;;;14.96;43.87;94302.34;5016261;28;20021;-76
2023/09/10 04:12:33;;;;;;;2.78;2.00;;;;;;;14.95;43.69;94298.13;5012410;28;20041;-76
2023/09/10 04:14:59;;;;;;;4.63;2.03;;;;;;;15.02;42.99;94292.22;5016219;28;20041;-75
2023/09/10 04:17:28;;;;;;;3.67;2.42;;;;;;;14.93;43.44;94286.16;4993047;28;20060;-76
2023/09/10 04:19:54;;;;;;;6.95;2.72;;;;;;;15.03;42.86;94293.78;5014904;28;20037;-75
2023/09/10 04:22:19;;;;;;;2.92;2.08;;;;;;;15.04;43.41;94296.16;5012702;28;20033;-76
2023/09/10 04:24:45;;;;;;;7.28;2.42;;;;;;;14.98;43.32;94294.00;5014709;28;20028;-76
2023/09/10 04:27:10;;;;;;;5.18;1.90;;;;;;;15.01;43.66;94307.50;5014786;28;20030;-77
2023/09/10 04:29:36;;;;;;;6.00;2.53;;;;;;;15.08;44.46;94315.00;5012169;28;20068;-76
2023/09/10 04:32:01;;;;;;;4.93;1.98;;;;;;;14.97;44.53;94308.47;5012837;28;20044;-77
2023/09/10 04:34:27;;;;;;;4.55;2.10;;;;;;;14.94;44.76;94314.50;5013836;28;20033;-76
2023/09/10 04:36:52;;;;;;;3.65;2.10;;;;;;;14.91;45.13;94310.56;5014467;28;20025;-77
2023/09/10 04:39:19;;;;;;;6.93;1.67;;;;;;;14.88;45.12;94305.09;4996248;28;20041;-76
2023/09/10 04:41:44;;;;;;;3.78;1.90;;;;;;;14.94;45.13;94307.25;5016155;28;20037;-75
2023/09/10 04:44:10;;;;;;;3.97;2.08;;;;;;;14.94;45.07;94290.41;5014422;28;20033;-76
2023/09/10 04:46:35;;;;;;;5.68;1.90;;;;;;;15.14;45.11;94307.56;5014768;28;20461;-75
2023/09/10 04:49:00;;;;;;;2.50;1.70;;;;;;;15.15;44.96;94304.56;5011285;28;20076;-75
2023/09/10 04:51:26;;;;;;;4.15;1.95;;;;;;;15.06;45.26;94287.75;5015863;28;20096;-76
2023/09/10 04:53:51;;;;;;;6.25;2.35;;;;;;;15.18;45.41;94295.84;5013882;28;20046;-75
2023/09/10 04:56:17;;;;;;;8.70;2.40;;;;;;;15.29;45.48;94299.69;4992565;28;20037;-76
2023/09/10 04:58:42;;;;;;;6.03;1.73;;;;;;;15.49;44.66;94318.75;5014890;28;21027;-76
2023/09/10 05:01:08;;;;;;;2.25;2.03;;;;;;;15.52;45.40;94318.88;5016774;28;20543;-77
2023/09/10 05:03:33;;;;;;;6.55;2.50;;;;;;;15.56;44.78;94309.06;5016755;28;20030;-76
2023/09/10 05:06:00;;;;;;;4.63;2.60;;;;;;;15.66;44.08;94321.25;4999097;28;20386;-76
2023/09/10 05:08:26;;;;;;;4.32;2.70;;;;;;;15.68;44.47;94310.97;5016233;28;20453;-76
2023/09/10 05:10:52;;;;;;;7.10;2.45;;;;;;;15.83;43.86;94323.75;5016400;28;20037;-77
2023/09/10 05:13:17;;;;;;;8.13;2.33;;;;;;;15.96;42.99;94319.94;5015767;28;20052;-77
2023/09/10 05:15:46;;;;;;;9.60;3.42;;;;;;;16.09;42.83;94318.03;5017157;28;21054;-76
2023/09/10 05:18:11;;;;;;;5.93;2.85;;;;;;;16.29;42.14;94319.84;5018456;28;20047;-76
2023/09/10 05:20:36;;;;;;;4.05;2.40;;;;;;;16.23;42.06;94323.88;5017138;28;20485;-76
2023/09/10 05:23:02;;;;;;;4.80;3.05;;;;;;;16.25;42.89;94325.09;5016870;28;20041;-77
2023/09/10 05:25:27;;;;;;;4.03;2.78;;;;;;;16.24;43.67;94306.66;5016416;28;20034;-76
2023/09/10 05:27:53;;;;;;;4.85;2.83;;;;;;;16.35;43.23;94317.75;5017515;28;20030;-76
2023/09/10 05:30:18;;;;;;;6.40;3.97;;;;;;;16.56;42.02;94326.47;5016052;28;20038;-76
2023/09/10 05:32:43;;;;;;;7.82;2.88;;;;;;;16.47;43.11;94323.13;5018954;28;20054;-76
2023/09/10 05:35:10;;;;;;;7.45;3.05;;;;;;;16.52;42.31;94339.00;4999322;28;20544;-77
2023/09/10 05:37:36;;;;;;;7.55;2.88;;;;;;;16.48;41.95;94325.44;5016159;28;20585;-76
2023/09/10 05:40:02;;;;;;;9.38;2.75;;;;;;;16.60;41.70;94341.56;5017073;28;20036;-76
2023/09/10 05:42:28;;;;;;;8.90;3.67;;;;;;;16.63;41.97;94334.72;5015199;28;20039;-76
2023/09/10 05:44:53;;;;;;;3.58;2.50;;;;;;;16.71;40.01;94337.28;5017866;28;20061;-76
2023/09/10 05:47:20;;;;;;;6.93;2.92;;;;;;;16.89;38.98;94331.66;5014974;28;20058;-76
2023/09/10 05:49:51;;;;;;;7.22;2.40;;;;;;;16.90;39.26;94333.22;5017924;28;20398;-76
2023/09/10 05:52:17;;;;;;;4.43;3.13;;;;;;;16.90;40.30;94328.63;5013828;28;20033;-76
2023/09/10 05:54:42;;;;;;;6.40;3.03;;;;;;;16.97;40.85;94339.56;5016324;28;20055;-76
2023/09/10 05:57:08;;;;;;;11.55;3.80;;;;;;;17.08;41.29;94337.19;5015102;28;20075;-76
2023/09/10 05:59:33;;;;;;;6.90;3.20;;;;;;;17.02;41.06;94317.81;5015177;28;20854;-76
2023/09/10 06:01:59;;;;;;;6.78;3.67;;;;;;;17.18;40.48;94337.53;5015703;28;20108;-76
2023/09/10 06:04:24;;;;;;;6.63;3.08;;;;;;;17.17;39.97;94327.88;4996983;28;21183;-77
2023/09/10 06:06:49;;;;;;;6.35;3.30;;;;;;;17.16;40.75;94331.69;5017574;28;20126;-76
2023/09/10 06:09:15;;;;;;;7.70;3.20;;;;;;;17.20;41.00;94331.81;4997621;28;20507;-77
2023/09/10 06:11:40;;;;;;;7.45;2.90;;;;;;;17.07;41.58;94338.31;5017602;28;20049;-74
2023/09/10 06:14:06;;;;;;;8.23;3.33;;;;;;;17.27;41.13;94344.66;5016016;28;20037;-76
2023/09/10 06:16:31;;;;;;;5.93;3.17;;;;;;;17.31;41.10;94342.84;5015012;28;20079;-77
2023/09/10 06:18:57;;;;;;;6.75;3.35;;;;;;;17.44;40.39;94336.31;5015538;28;20049;-76
2023/09/10 06:21:22;;;;;;;7.13;3.13;;;;;;;17.43;40.83;94348.16;5015337;28;20044;-77
2023/09/10 06:23:47;;;;;;;4.95;2.58;;;;;;;17.31;40.71;94337.47;5000503;28;20030;-74
2023/09/10 06:26:13;;;;;;;6.95;3.42;;;;;;;17.60;39.30;94342.47;5014148;28;21450;-76
2023/09/10 06:28:39;;;;;;;6.28;3.00;;;;;;;17.75;38.98;94336.34;5017636;28;20231;-74
2023/09/10 06:31:06;;;;;;;7.35;3.13;;;;;;;17.80;40.00;94357.63;5012855;28;20584;-76
2023/09/10 06:33:32;;;;;;;9.43;2.83;;;;;;;17.87;39.50;94349.75;4999181;28;20032;-76
2023/09/10 06:35:57;;;;;;;8.30;3.47;;;;;;;17.77;38.55;94349.47;5014914;28;20046;-76
2023/09/10 06:38:23;;;;;;;8.10;2.97;;;;;;;17.93;38.65;94348.38;5014461;28;20044;-76
2023/09/10 06:40:48;;;;;;;7.97;2.75;;;;;;;18.01;38.47;94333.97;5014223;28;20128;-76
2023/09/10 06:43:14;;;;;;;9.32;2.67;;;;;;;18.11;37.81;94339.97;5016677;28;20512;-76
2023/09/10 06:45:41;;;;;;;10.75;3.45;;;;;;;18.19;37.57;94347.84;4997627;28;20504;-76
2023/09/10 06:48:06;;;;;;;8.18;3.65;;;;;;;18.35;38.46;94348.63;4997799;28;20052;-76
2023/09/10 06:50:32;;;;;;;9.65;2.88;;;;;;;18.30;37.36;94340.81;5015822;28;20026;-76
2023/09/10 06:52:57;;;;;;;5.68;3.63;;;;;;;18.30;37.47;94338.13;4999441;28;20053;-76
2023/09/10 06:55:23;;;;;;;4.13;3.28;;;;;;;18.42;37.56;94338.03;4989442;28;20041;-76
2023/09/10 06:57:49;;;;;;;9.60;2.63;;;;;;;18.49;37.22;94337.41;5017463;28;20033;-77
2023/09/10 07:00:15;;;;;;;6.63;2.63;;;;;;;18.67;37.45;94352.09;5013567;28;20029;-77
2023/09/10 07:02:40;;;;;;;6.55;2.80;;;;;;;18.74;36.76;94346.88;5015914;28;20037;-76
2023/09/10 07:05:07;;;;;;;6.78;2.67;;;;;;;18.81;37.03;94349.72;5013776;28;20042;-76
2023/09/10 07:07:32;;;;;;;5.05;2.67;;;;;;;18.83;37.24;94335.88;5015378;28;20124;-77
2023/09/10 07:09:58;;;;;;;3.78;2.33;;;;;;;18.92;37.06;94339.16;5014753;28;20457;-76
2023/09/10 07:12:23;;;;;;;3.72;2.50;;;;;;;18.95;37.03;94337.69;4998506;28;20247;-75
2023/09/10 07:14:49;;;;;;;5.28;2.67;;;;;;;18.96;36.13;94344.66;5014464;28;20037;-76
2023/09/10 07:17:15;;;;;;;8.75;2.42;;;;;;;19.08;36.36;94366.06;5014903;28;20524;-75
2023/09/10 07:19:40;;;;;;;5.45;2.63;;;;;;;18.96;36.24;94334.66;5012643;28;20124;-76
2023/09/10 07:22:06;;;;;;;4.50;2.65;;;;;;;19.13;36.37;94345.00;5016172;28;20028;-76
2023/09/10 07:24:31;;;;;;;6.85;2.42;;;;;;;19.16;36.78;94352.41;5012619;28;20017;-77
2023/09/10 07:26:58;;;;;;;6.80;3.13;;;;;;;19.26;37.31;94353.75;5016988;28;20041;-77
2023/09/10 07:29:24;;;;;;;8.98;2.42;;;;;;;19.32;37.24;94353.09;5012508;28;20243;-76
2023/09/10 07:31:50;;;;;;;6.10;2.30;;;;;;;19.45;36.79;94344.91;5013339;28;20814;-77
2023/09/10 07:34:15;;;;;;;4.28;1.90;;;;;;;19.41;36.77;94342.09;4995155;28;20538;-76
2023/09/10 07:36:43;;;;;;;8.07;2.22;;;;;;;19.47;35.93;94343.41;5011032;28;20580;-77
2023/09/10 07:39:08;;;;;;;6.70;2.85;;;;;;;19.64;35.86;94348.38;5012449;28;20754;-75
2023/09/10 07:41:34;;;;;;;9.00;2.13;;;;;;;19.71;35.65;94343.09;5016360;28;20053;-76
2023/09/10 07:44:01;;;;;;;6.30;2.78;;;;;;;19.34;35.74;94328.47;4994324;28;20037;-76
2023/09/10 07:46:27;;;;;;;7.95;2.33;;;;;;;19.64;35.11;94342.97;5016001;28;20041;-76
2023/09/10 07:48:52;;;;;;;9.95;2.63;;;;;;;19.83;35.88;94344.06;4996683;28;20401;-77
2023/09/10 07:51:17;;;;;;;4.63;2.15;;;;;;;20.00;34.26;94343.59;5014145;28;20152;-76
2023/09/10 07:53:43;;;;;;;6.15;2.22;;;;;;;19.90;34.95;94328.75;5012951;28;20647;-77
2023/09/10 07:56:08;;;;;;;6.57;2.00;;;;;;;19.83;35.72;94334.06;5016319;28;20144;-76
2023/09/10 07:58:33;;;;;;;4.53;2.50;;;;;;;20.03;35.68;94329.38;4990710;28;20068;-76
2023/09/10 08:00:59;;;;;;;2.90;2.00;;;;;;;20.11;34.98;94322.97;5008637;28;20037;-76
2023/09/10 08:03:24;;;;;;;6.18;2.00;;;;;;;20.14;34.04;94323.00;5007920;28;20092;-76
2023/09/10 08:05:50;;;;;;;7.97;1.92;;;;;;;20.24;34.15;94331.69;5006600;28;20033;-76
2023/09/10 08:08:15;;;;;;;4.38;2.17;;;;;;;20.17;34.57;94318.84;5006265;28;20539;-75
2023/09/10 08:10:44;;;;;;;3.80;2.00;;;;;;;20.41;34.72;94329.25;4999646;28;20710;-77
2023/09/10 08:13:12;;;;;;;7.72;2.55;;;;;;;20.39;34.98;94318.03;5004346;28;20571;-76
2023/09/10 08:15:37;;;;;;;7.70;2.67;;;;;;;20.60;34.99;94339.97;5005848;28;20029;-76
2023/09/10 08:18:04;;;;;;;5.75;2.05;;;;;;;20.69;33.62;94320.00;4986691;28;20064;-77
2023/09/10 08:20:29;;;;;;;7.82;2.53;;;;;;;20.68;33.89;94324.63;5005183;28;20279;-76
2023/09/10 08:22:54;;;;;;;6.55;2.10;;;;;;;20.68;33.94;94319.22;5006915;28;20037;-76
2023/09/10 08:25:20;;;;;;;3.28;2.15;;;;;;;20.59;34.16;94327.59;5006521;28;20037;-76
2023/09/10 08:27:46;;;;;;;4.30;2.35;;;;;;;20.58;34.24;94328.75;4988827;28;20738;-76
2023/09/10 08:30:11;;;;;;;5.25;2.28;;;;;;;20.63;34.09;94321.50;5005723;28;20099;-76
2023/09/10 08:32:37;;;;;;;4.30;2.53;;;;;;;20.84;34.23;94313.66;5005409;28;20033;-76
2023/09/10 08:35:06;;;;;;;4.18;2.67;;;;;;;20.99;33.93;94313.50;5008867;28;20654;-77
2023/09/10 08:37:32;;;;;;;9.35;2.90;;;;;;;21.00;34.19;94314.31;5009484;28;20037;-76
2023/09/10 08:39:58;;;;;;;4.28;2.75;;;;;;;21.07;33.74;94317.06;5010090;28;20367;-76
2023/09/10 08:42:44;;;;;;;6.82;3.17;;;;;;;20.94;34.21;94299.53;4989192;28;20021;-76
2023/09/10 08:45:11;;;;;;;7.40;3.22;;;;;;;20.82;35.17;94311.34;4990870;28;20602;-76
2023/09/10 08:47:41;;;;;;;9.18;4.13;;;;;;;20.90;34.99;94314.94;5009634;28;20134;-76
2023/09/10 08:50:11;;;;;;;5.32;3.75;;;;;;;20.89;35.45;94313.38;5007846;28;20738;-77
2023/09/10 08:52:39;;;;;;;6.85;3.35;;;;;;;20.95;35.78;94285.66;5011225;28;20469;-76
2023/09/10 08:55:06;;;;;;;5.95;2.70;;;;;;;21.09;35.83;94300.50;5009651;28;20457;-77
2023/09/10 08:57:33;;;;;;;4.90;3.45;;;;;;;21.02;35.12;94301.19;5012276;28;20087;-77
2023/09/10 09:00:00;;;;;;;5.25;3.70;;;;;;;21.19;35.34;94306.03;4989655;28;20535;-75
2023/09/10 09:02:26;;;;;;;5.43;3.75;;;;;;;21.17;35.09;94312.97;5005549;28;20029;-77
2023/09/10 09:04:51;;;;;;;6.72;4.05;;;;;;;21.21;35.57;94303.75;5008405;28;20827;-77
2023/09/10 09:07:20;;;;;;;11.13;4.85;;;;;;;21.27;35.16;94309.59;5007233;28;20519;-77
2023/09/10 09:09:50;;;;;;;7.55;3.95;;;;;;;21.50;35.27;94309.50;5015741;28;20033;-78
2023/09/10 09:12:17;;;;;;;8.07;4.13;;;;;;;21.23;34.62;94301.44;5015821;28;20037;-77
2023/09/10 09:14:46;;;;;;;6.00;3.67;;;;;;;21.31;34.63;94311.22;5015232;28;20106;-76
2023/09/10 09:17:12;;;;;;;6.03;3.40;;;;;;;21.39;34.44;94307.44;5001049;28;20041;-76
2023/09/10 09:19:42;;;;;;;10.73;4.32;;;;;;;21.52;35.05;94296.34;5014023;28;20033;-75
2023/09/10 09:22:07;;;;;;;5.18;3.88;;;;;;;21.54;34.17;94304.88;4995529;28;20489;-76
2023/09/10 09:24:33;;;;;;;4.47;3.65;;;;;;;21.54;34.56;94291.34;5013518;28;20021;-77
2023/09/10 09:27:01;;;;;;;5.13;3.67;;;;;;;21.65;35.20;94295.78;5017633;28;20337;-75
2023/09/10 09:29:28;;;;;;;8.23;3.92;;;;;;;21.69;34.17;94307.41;5015198;28;20130;-76
2023/09/10 09:31:54;;;;;;;7.18;3.75;;;;;;;21.34;34.00;94291.53;4999309;28;20069;-76
2023/09/10 09:34:19;;;;;;;4.35;3.60;;;;;;;21.49;33.83;94289.75;5017963;28;20188;-76
2023/09/10 09:36:49;;;;;;;8.65;4.35;;;;;;;21.62;33.67;94284.88;5011250;28;20906;-76
2023/09/10 09:39:17;;;;;;;8.80;4.10;;;;;;;21.75;33.83;94297.81;5010989;28;20056;-75
2023/09/10 09:41:46;;;;;;;6.90;4.35;;;;;;;21.52;32.95;94274.69;4996966;28;20553;-76
2023/09/10 09:44:12;;;;;;;7.80;4.07;;;;;;;21.59;33.36;94301.88;5010839;28;20498;-76
2023/09/10 09:46:37;;;;;;;14.07;3.72;;;;;;;21.76;33.59;94295.84;5016081;28;20051;-76
2023/09/10 09:49:03;;;;;;;5.35;2.90;;;;;;;21.90;33.64;94274.34;5015270;28;20048;-76
2023/09/10 09:51:28;;;;;;;5.85;3.60;;;;;;;21.94;33.28;94286.00;5017791;28;20522;-78
2023/09/10 09:53:55;;;;;;;5.97;3.53;;;;;;;21.81;33.29;94288.19;5000877;28;20046;-78
2023/09/10 09:56:21;;;;;;;5.03;3.25;;;;;;;21.91;33.03;94284.00;5018619;28;20115;-76
2023/09/10 09:58:46;;;;;;;11.70;3.78;;;;;;;21.88;33.70;94284.75;5016561;28;20119;-77
2023/09/10 10:01:12;;;;;;;10.20;4.05;;;;;;;22.17;33.32;94281.16;5016947;28;20033;-76
2023/09/10 10:03:37;;;;;;;5.45;3.70;;;;;;;22.24;33.00;94283.16;5017526;28;20047;-78
2023/09/10 10:06:03;;;;;;;8.73;4.07;;;;;;;22.10;33.35;94272.16;5016337;28;20171;-77
2023/09/10 10:08:30;;;;;;;5.38;3.47;;;;;;;22.19;33.47;94281.53;5015963;28;20063;-76
2023/09/10 10:10:55;;;;;;;6.32;3.47;;;;;;;22.41;32.76;94282.50;5013848;28;20550;-78
2023/09/10 10:13:23;;;;;;;5.88;3.47;;;;;;;22.42;32.96;94278.66;5017546;28;20103;-77
2023/09/10 10:15:51;;;;;;;6.18;3.75;;;;;;;22.44;32.76;94279.03;5016504;28;20025;-76
2023/09/10 10:18:19;;;;;;;12.65;3.58;;;;;;;22.37;32.79;94270.09;5018287;28;20044;-77
2023/09/10 10:20:49;;;;;;;9.35;3.83;;;;;;;22.54;32.53;94275.63;4991893;28;20067;-76
2023/09/10 10:23:16;;;;;;;4.90;3.47;;;;;;;22.64;32.62;94266.00;4998696;28;20088;-76
2023/09/10 10:25:42;;;;;;;3.50;3.20;;;;;;;22.81;32.62;94265.34;4993976;28;20509;-77
2023/09/10 10:28:12;;;;;;;8.43;3.58;;;;;;;22.68;32.47;94251.31;5015511;28;20036;-78
2023/09/10 10:30:44;;;;;;;5.95;4.25;;;;;;;22.65;32.73;94257.50;5019440;28;20021;-75
2023/09/10 10:33:12;;;;;;;6.28;3.47;;;;;;;22.58;32.71;94262.09;5018324;28;20996;-76
2023/09/10 10:35:44;;;;;;;6.25;3.55;;;;;;;22.40;32.57;94269.31;5018446;28;20071;-76
2023/09/10 10:38:16;;;;;;;4.85;3.75;;;;;;;22.28;33.13;94246.81;5017416;28;20040;-78
2023/09/10 10:40:44;;;;;;;6.60;3.45;;;;;;;22.54;32.65;94247.72;5016469;28;20080;-75
2023/09/10 10:43:20;;;;;;;6.13;3.45;;;;;;;22.61;33.09;94250.50;4997038;28;20014;-76
2023/09/10 10:45:47;;;;;;;7.10;4.05;;;;;;;22.39;32.93;94251.53;5017311;28;20038;-77
2023/09/10 10:48:17;;;;;;;4.70;3.45;;;;;;;22.58;32.67;94246.63;5016216;28;20045;-77
2023/09/10 10:50:44;;;;;;;7.00;3.78;;;;;;;22.64;33.51;94245.09;5016559;28;20128;-78
2023/09/10 10:53:19;;;;;;;6.47;3.83;;;;;;;22.82;33.51;94236.28;5014673;28;20045;-76
2023/09/10 10:55:47;;;;;;;8.40;3.72;;;;;;;22.84;32.94;94223.88;4999484;28;20187;-75
2023/09/10 10:58:13;;;;;;;16.63;4.57;;;;;;;22.79;32.49;94226.19;5013604;28;20299;-76
2023/09/10 11:00:39;;;;;;;9.68;4.07;;;;;;;22.94;33.31;94216.97;5000131;28;20021;-78
2023/09/10 11:03:15;;;;;;;5.38;3.28;;;;;;;23.06;32.70;94231.00;5012857;28;20040;-77
2023/09/10 11:06:04;;;;;;;4.82;3.40;;;;;;;22.96;32.43;94231.72;5013626;28;20052;-79
2023/09/10 11:08:42;;;;;;;7.90;4.82;;;;;;;22.86;32.26;94223.50;5013874;28;20048;-78
2023/09/10 11:11:33;;;;;;;6.30;3.58;;;;;;;22.85;32.39;94225.44;5014907;28;20037;-78
2023/09/10 11:14:02;;;;;;;7.22;4.28;;;;;;;22.82;32.58;94220.00;5016166;28;20536;-76
2023/09/10 11:16:34;;;;;;;4.22;3.40;;;;;;;22.80;32.53;94212.25;4996349;28;20041;-76
2023/09/10 11:19:03;;;;;;;6.95;3.65;;;;;;;22.80;32.63;94222.31;5014947;28;20037;-76
2023/09/10 11:21:56;;;;;;;5.00;3.60;;;;;;;22.77;32.28;94218.44;5016653;28;20096;-78
2023/09/10 11:24:21;;;;;;;6.07;3.55;;;;;;;22.86;32.16;94205.34;5014982;28;20045;-79
2023/09/10 11:26:47;;;;;;;5.07;3.78;;;;;;;22.96;32.62;94204.59;5013664;28;20048;-78
2023/09/10 11:29:17;;;;;;;5.60;3.15;;;;;;;23.07;32.46;94199.22;5015909;28;20044;-77
2023/09/10 11:31:45;;;;;;;5.55;2.88;;;;;;;23.02;32.16;94208.50;5014903;28;20048;-79
2023/09/10 11:34:23;;;;;;;6.65;3.58;;;;;;;23.03;32.55;94198.41;5016469;28;20033;-76